createdAt,value
2018-12-25T00:00:05.866Z,99.86
2018-12-25T00:01:05.810Z,99.96
2018-12-25T00:02:05.846Z,99.99
2018-12-25T00:03:05.792Z,99.99
2018-12-25T00:04:05.786Z,99.99
2018-12-25T00:05:05.771Z,99.96
2018-12-25T00:06:05.805Z,99.96
2018-12-25T00:07:05.752Z,99.96
2018-12-25T00:08:05.750Z,99.96
2018-12-25T00:09:05.737Z,99.96
2018-12-25T00:10:05.724Z,99.96
2018-12-25T00:11:05.804Z,99.96
2018-12-25T00:12:05.725Z,99.99
2018-12-25T00:13:05.706Z,99.96
2018-12-25T00:14:06.217Z,99.44
2018-12-25T00:15:05.695Z,99.99
2018-12-25T00:16:05.655Z,99.92
2018-12-25T00:17:05.645Z,99.96
2018-12-25T00:18:05.681Z,99.99
2018-12-25T00:19:06.289Z,99.92
2018-12-25T00:20:05.610Z,99.96
2018-12-25T00:21:05.593Z,99.99
2018-12-25T00:22:05.652Z,99.92
2018-12-25T00:23:05.573Z,99.99
2018-12-25T00:24:05.632Z,99.92
2018-12-25T00:25:05.554Z,99.99
2018-12-25T00:26:05.542Z,99.29
2018-12-25T00:27:05.534Z,99.40
2018-12-25T00:28:05.528Z,99.40
2018-12-25T00:29:05.528Z,99.51
2018-12-25T00:30:05.539Z,99.51
2018-12-25T00:31:05.492Z,99.51
2018-12-25T00:32:05.495Z,99.19
2018-12-25T00:33:05.464Z,99.51
2018-12-25T00:34:05.472Z,99.51
2018-12-25T00:35:05.455Z,99.51
2018-12-25T00:36:05.481Z,99.51
2018-12-25T00:37:05.419Z,99.29
2018-12-25T00:38:05.433Z,99.08
2018-12-25T00:39:05.399Z,99.19
2018-12-25T00:40:05.392Z,99.19
2018-12-25T00:41:05.376Z,98.77
2018-12-25T00:42:05.408Z,98.98
2018-12-25T00:43:05.359Z,99.19
2018-12-25T00:44:05.379Z,99.19
2018-12-25T00:45:05.369Z,99.19
2018-12-25T00:46:05.326Z,98.77
2018-12-25T00:47:05.317Z,98.67
2018-12-25T00:48:05.350Z,99.19
2018-12-25T00:49:05.299Z,99.08
2018-12-25T00:50:05.288Z,99.61
2018-12-25T00:51:05.271Z,98.98
2018-12-25T00:52:05.261Z,99.19
2018-12-25T00:53:05.248Z,98.77
2018-12-25T00:54:05.274Z,99.19
2018-12-25T00:55:05.225Z,99.08
2018-12-25T00:56:05.228Z,98.88
2018-12-25T00:57:05.211Z,98.77
2018-12-25T00:58:05.199Z,99.99
2018-12-25T00:59:05.185Z,99.99
2018-12-25T01:00:05.206Z,99.19
2018-12-25T01:01:05.161Z,99.19
2018-12-25T01:02:05.149Z,99.19
2018-12-25T01:03:05.183Z,99.35
2018-12-25T01:04:05.195Z,99.25
2018-12-25T01:05:05.115Z,99.35
2018-12-25T01:06:05.159Z,99.29
2018-12-25T01:07:05.105Z,99.66
2018-12-25T01:08:05.095Z,99.46
2018-12-25T01:09:05.079Z,99.04
2018-12-25T01:10:05.071Z,99.25
2018-12-25T01:11:05.086Z,99.46
2018-12-25T01:12:05.096Z,99.46
2018-12-25T01:13:05.041Z,99.04
2018-12-25T01:14:05.044Z,98.72
2018-12-25T01:15:05.022Z,99.04
2018-12-25T01:16:05.004Z,99.35
2018-12-25T01:17:04.998Z,99.25
2018-12-25T01:18:05.055Z,99.04
2018-12-25T01:19:04.983Z,99.25
2018-12-25T01:20:04.965Z,99.31
2018-12-25T01:21:04.946Z,98.99
2018-12-25T01:22:05.001Z,99.10
2018-12-25T01:23:04.944Z,99.41
2018-12-25T01:24:04.940Z,99.25
2018-12-25T01:25:04.923Z,98.89
2018-12-25T01:26:04.892Z,99.15
2018-12-25T01:27:04.885Z,99.10
2018-12-25T01:28:04.868Z,98.79
2018-12-25T01:29:04.858Z,98.58
2018-12-25T01:30:04.916Z,98.68
2018-12-25T01:31:04.858Z,98.68
2018-12-25T01:32:04.834Z,98.58
2018-12-25T01:33:04.825Z,98.68
2018-12-25T01:34:04.821Z,98.68
2018-12-25T01:35:04.797Z,99.10
2018-12-25T01:36:04.830Z,98.89
2018-12-25T01:37:04.802Z,99.10
2018-12-25T01:38:04.768Z,99.25
2018-12-25T01:39:04.757Z,99.20
2018-12-25T01:40:04.751Z,98.79
2018-12-25T01:41:04.736Z,98.99
2018-12-25T01:42:04.781Z,99.10
2018-12-25T01:43:04.712Z,98.99
2018-12-25T01:44:04.714Z,98.89
2018-12-25T01:45:04.708Z,98.99
2018-12-25T01:46:04.673Z,99.20
2018-12-25T01:47:04.689Z,99.10
2018-12-25T01:48:04.708Z,98.89
2018-12-25T01:49:04.741Z,99.10
2018-12-25T01:50:04.637Z,98.99
2018-12-25T01:51:04.634Z,99.10
2018-12-25T01:52:04.612Z,99.31
2018-12-25T01:53:04.613Z,99.20
2018-12-25T01:54:04.644Z,99.10
2018-12-25T01:55:04.604Z,99.05
2018-12-25T01:56:04.569Z,98.85
2018-12-25T01:57:04.573Z,99.16
2018-12-25T01:58:04.569Z,98.63
2018-12-25T01:59:04.552Z,98.74
2018-12-25T02:00:04.571Z,98.85
2018-12-25T02:01:04.536Z,98.43
2018-12-25T02:02:04.513Z,98.63
2018-12-25T02:03:04.526Z,98.63
2018-12-25T02:04:04.483Z,98.63
2018-12-25T02:05:04.476Z,98.53
2018-12-25T02:06:04.516Z,98.53
2018-12-25T02:07:04.458Z,98.32
2018-12-25T02:08:04.464Z,98.63
2018-12-25T02:09:04.427Z,98.63
2018-12-25T02:10:04.421Z,98.85
2018-12-25T02:11:04.414Z,98.53
2018-12-25T02:12:04.423Z,98.74
2018-12-25T02:13:04.389Z,98.74
2018-12-25T02:14:04.377Z,98.11
2018-12-25T02:15:04.368Z,98.53
2018-12-25T02:16:04.360Z,98.63
2018-12-25T02:17:04.351Z,98.43
2018-12-25T02:18:04.369Z,98.85
2018-12-25T02:19:04.335Z,98.43
2018-12-25T02:20:04.315Z,98.11
2018-12-25T02:21:04.308Z,98.32
2018-12-25T02:22:04.290Z,98.22
2018-12-25T02:23:04.275Z,97.80
2018-12-25T02:24:04.379Z,98.11
2018-12-25T02:25:04.258Z,98.32
2018-12-25T02:26:04.247Z,98.38
2018-12-25T02:27:04.259Z,98.18
2018-12-25T02:28:04.271Z,98.49
2018-12-25T02:29:04.222Z,98.28
2018-12-25T02:30:04.236Z,98.18
2018-12-25T02:31:04.215Z,98.28
2018-12-25T02:32:04.193Z,98.53
2018-12-25T02:33:04.263Z,98.38
2018-12-25T02:34:04.167Z,98.28
2018-12-25T02:35:04.179Z,97.86
2018-12-25T02:36:04.167Z,97.86
2018-12-25T02:37:04.140Z,98.49
2018-12-25T02:38:04.126Z,98.38
2018-12-25T02:39:04.127Z,98.59
2018-12-25T02:40:04.108Z,97.97
2018-12-25T02:41:04.113Z,98.18
2018-12-25T02:42:04.117Z,98.49
2018-12-25T02:43:04.074Z,98.38
2018-12-25T02:44:04.077Z,97.86
2018-12-25T02:45:04.056Z,98.18
2018-12-25T02:46:04.032Z,97.86
2018-12-25T02:47:04.033Z,98.28
2018-12-25T02:48:04.084Z,98.28
2018-12-25T02:49:04.029Z,99.01
2018-12-25T02:50:04.004Z,98.38
2018-12-25T02:51:03.981Z,98.38
2018-12-25T02:52:03.982Z,98.28
2018-12-25T02:53:03.957Z,98.49
2018-12-25T02:54:03.979Z,98.34
2018-12-25T02:55:03.943Z,98.18
2018-12-25T02:56:03.962Z,97.92
2018-12-25T02:57:03.915Z,98.07
2018-12-25T02:58:03.901Z,98.13
2018-12-25T02:59:03.896Z,98.07
2018-12-25T03:00:03.954Z,98.02
2018-12-25T03:01:03.889Z,98.44
2018-12-25T03:02:03.867Z,97.92
2018-12-25T03:03:03.883Z,98.34
2018-12-25T03:04:03.860Z,98.02
2018-12-25T03:05:03.834Z,98.23
2018-12-25T03:06:03.872Z,98.13
2018-12-25T03:07:03.808Z,98.23
2018-12-25T03:08:03.803Z,98.44
2018-12-25T03:09:03.797Z,98.86
2018-12-25T03:10:03.793Z,98.34
2018-12-25T03:11:03.769Z,98.23
2018-12-25T03:12:03.827Z,98.13
2018-12-25T03:13:03.754Z,98.23
2018-12-25T03:14:03.743Z,98.23
2018-12-25T03:15:03.712Z,98.13
2018-12-25T03:16:03.722Z,98.23
2018-12-25T03:17:03.707Z,98.55
2018-12-25T03:18:03.745Z,98.13
2018-12-25T03:19:03.668Z,98.13
2018-12-25T03:20:03.674Z,98.34
2018-12-25T03:21:03.645Z,97.92
2018-12-25T03:22:03.641Z,97.71
2018-12-25T03:23:03.653Z,97.71
2018-12-25T03:24:03.655Z,97.92
2018-12-25T03:25:03.606Z,97.30
2018-12-25T03:26:03.595Z,97.46
2018-12-25T03:27:03.597Z,97.25
2018-12-25T03:28:03.571Z,97.14
2018-12-25T03:29:03.580Z,97.09
2018-12-25T03:30:03.609Z,97.19
2018-12-25T03:31:03.554Z,96.94
2018-12-25T03:32:03.563Z,97.04
2018-12-25T03:33:03.543Z,96.94
2018-12-25T03:34:03.511Z,96.98
2018-12-25T03:35:03.514Z,96.98
2018-12-25T03:36:03.533Z,96.94
2018-12-25T03:37:03.473Z,97.04
2018-12-25T03:38:03.464Z,97.04
2018-12-25T03:39:03.462Z,96.62
2018-12-25T03:40:03.445Z,96.83
2018-12-25T03:41:03.452Z,96.42
2018-12-25T03:42:03.472Z,95.79
2018-12-25T03:43:03.430Z,95.58
2018-12-25T03:44:03.409Z,96.31
2018-12-25T03:45:03.398Z,96.56
2018-12-25T03:46:03.387Z,96.67
2018-12-25T03:47:03.379Z,96.94
2018-12-25T03:48:03.388Z,97.04
2018-12-25T03:49:03.381Z,96.31
2018-12-25T03:50:10.674Z,96.42
2018-12-25T03:51:04.337Z,95.58
2018-12-25T03:52:03.317Z,96.25
2018-12-25T03:53:03.313Z,95.89
2018-12-25T03:54:03.496Z,95.58
2018-12-25T03:55:03.282Z,95.68
2018-12-25T03:56:03.284Z,96.00
2018-12-25T03:57:03.259Z,95.79
2018-12-25T03:58:03.247Z,95.37
2018-12-25T03:59:03.240Z,95.68
2018-12-25T04:00:03.261Z,95.48
2018-12-25T04:01:03.223Z,95.68
2018-12-25T04:02:03.210Z,95.27
2018-12-25T04:03:03.218Z,94.29
2018-12-25T04:04:03.214Z,94.29
2018-12-25T04:05:03.202Z,94.64
2018-12-25T04:06:03.255Z,94.43
2018-12-25T04:07:03.171Z,94.18
2018-12-25T04:08:03.168Z,94.18
2018-12-25T04:09:03.211Z,94.23
2018-12-25T04:10:03.139Z,94.49
2018-12-25T04:11:03.127Z,94.60
2018-12-25T04:12:03.155Z,94.39
2018-12-25T04:13:03.098Z,94.39
2018-12-25T04:14:03.081Z,94.18
2018-12-25T04:15:03.130Z,94.29
2018-12-25T04:16:03.102Z,94.49
2018-12-25T04:17:03.062Z,95.23
2018-12-25T04:18:03.076Z,94.70
2018-12-25T04:19:03.033Z,94.49
2018-12-25T04:20:03.033Z,94.49
2018-12-25T04:21:03.007Z,94.08
2018-12-25T04:22:02.999Z,94.02
2018-12-25T04:23:02.984Z,94.39
2018-12-25T04:24:03.023Z,94.08
2018-12-25T04:25:02.961Z,94.49
2018-12-25T04:26:02.951Z,94.49
2018-12-25T04:27:02.949Z,94.29
2018-12-25T04:28:02.947Z,93.87
2018-12-25T04:29:02.920Z,94.39
2018-12-25T04:30:02.964Z,94.70
2018-12-25T04:31:02.898Z,94.18
2018-12-25T04:32:02.878Z,93.87
2018-12-25T04:33:02.878Z,94.60
2018-12-25T04:34:02.876Z,94.08
2018-12-25T04:35:02.859Z,93.98
2018-12-25T04:36:02.896Z,94.18
2018-12-25T04:37:02.846Z,93.83
2018-12-25T04:38:02.826Z,93.56
2018-12-25T04:39:02.808Z,93.56
2018-12-25T04:40:02.802Z,93.56
2018-12-25T04:41:02.813Z,93.31
2018-12-25T04:42:02.825Z,93.56
2018-12-25T04:43:02.779Z,93.52
2018-12-25T04:44:02.774Z,93.04
2018-12-25T04:45:02.742Z,93.31
2018-12-25T04:46:02.733Z,93.52
2018-12-25T04:47:02.732Z,93.56
2018-12-25T04:48:02.763Z,93.31
2018-12-25T04:49:02.701Z,93.35
2018-12-25T04:50:02.687Z,93.66
2018-12-25T04:51:02.702Z,93.10
2018-12-25T04:52:02.680Z,92.93
2018-12-25T04:53:02.672Z,92.68
2018-12-25T04:54:02.720Z,92.58
2018-12-25T04:55:02.638Z,92.58
2018-12-25T04:56:02.639Z,92.99
2018-12-25T04:57:02.638Z,93.10
2018-12-25T04:58:02.611Z,92.79
2018-12-25T04:59:02.591Z,92.99
2018-12-25T05:00:02.611Z,92.58
2018-12-25T05:01:02.574Z,93.20
2018-12-25T05:02:02.558Z,92.89
2018-12-25T05:03:02.572Z,92.93
2018-12-25T05:04:02.665Z,92.89
2018-12-25T05:05:02.530Z,92.89
2018-12-25T05:06:02.566Z,92.68
2018-12-25T05:07:02.504Z,92.99
2018-12-25T05:08:02.496Z,92.68
2018-12-25T05:09:02.483Z,92.52
2018-12-25T05:10:02.483Z,93.20
2018-12-25T05:11:02.456Z,92.99
2018-12-25T05:12:02.484Z,91.96
2018-12-25T05:13:02.433Z,92.27
2018-12-25T05:14:02.440Z,91.43
2018-12-25T05:15:02.464Z,91.33
2018-12-25T05:16:02.405Z,90.91
2018-12-25T05:17:02.413Z,90.91
2018-12-25T05:18:02.444Z,90.81
2018-12-25T05:19:02.383Z,90.91
2018-12-25T05:20:02.367Z,91.12
2018-12-25T05:21:02.351Z,91.71
2018-12-25T05:22:02.336Z,91.39
2018-12-25T05:23:02.328Z,92.02
2018-12-25T05:24:02.411Z,91.43
2018-12-25T05:25:02.319Z,91.60
2018-12-25T05:26:02.295Z,91.85
2018-12-25T05:27:02.287Z,92.37
2018-12-25T05:28:02.286Z,92.79
2018-12-25T05:29:02.277Z,92.58
2018-12-25T05:30:02.309Z,92.58
2018-12-25T05:31:02.282Z,92.99
2018-12-25T05:32:04.797Z,93.41
2018-12-25T05:33:02.217Z,93.20
2018-12-25T05:34:02.229Z,93.62
2018-12-25T05:35:02.196Z,93.73
2018-12-25T05:36:02.245Z,94.24
2018-12-25T05:37:02.202Z,94.14
2018-12-25T05:38:02.169Z,93.93
2018-12-25T05:39:02.170Z,93.83
2018-12-25T05:40:02.162Z,93.93
2018-12-25T05:41:02.149Z,94.04
2018-12-25T05:42:02.199Z,93.62
2018-12-25T05:43:02.117Z,93.62
2018-12-25T05:44:02.136Z,94.08
2018-12-25T05:45:02.096Z,93.73
2018-12-25T05:46:02.088Z,92.58
2018-12-25T05:47:02.125Z,92.99
2018-12-25T05:48:02.101Z,92.79
2018-12-25T05:49:02.067Z,93.10
2018-12-25T05:50:02.050Z,92.89
2018-12-25T05:51:02.040Z,93.31
2018-12-25T05:52:02.029Z,93.10
2018-12-25T05:53:02.056Z,92.85
2018-12-25T05:54:02.042Z,92.58
2018-12-25T05:55:01.978Z,91.85
2018-12-25T05:56:01.962Z,92.16
2018-12-25T05:57:01.967Z,92.02
2018-12-25T05:58:01.945Z,92.58
2018-12-25T05:59:01.942Z,92.37
2018-12-25T06:00:02.004Z,91.60
2018-12-25T06:01:01.967Z,92.02
2018-12-25T06:02:01.899Z,91.50
2018-12-25T06:03:01.913Z,91.39
2018-12-25T06:04:01.896Z,91.53
2018-12-25T06:05:01.881Z,91.08
2018-12-25T06:06:01.916Z,91.39
2018-12-25T06:07:01.850Z,91.28
2018-12-25T06:08:01.851Z,91.39
2018-12-25T06:09:01.835Z,91.12
2018-12-25T06:10:01.823Z,91.81
2018-12-25T06:11:01.810Z,92.85
2018-12-25T06:12:01.839Z,92.85
2018-12-25T06:13:01.783Z,93.16
2018-12-25T06:14:01.771Z,93.27
2018-12-25T06:15:01.783Z,92.54
2018-12-25T06:16:01.754Z,92.33
2018-12-25T06:17:01.783Z,92.58
2018-12-25T06:18:01.859Z,92.12
2018-12-25T06:19:01.724Z,90.97
2018-12-25T06:20:01.709Z,90.87
2018-12-25T06:21:01.693Z,90.97
2018-12-25T06:22:01.696Z,91.39
2018-12-25T06:23:01.736Z,91.18
2018-12-25T06:24:01.726Z,90.77
2018-12-25T06:25:01.661Z,90.87
2018-12-25T06:26:01.658Z,90.87
2018-12-25T06:27:01.707Z,90.35
2018-12-25T06:28:01.668Z,90.56
2018-12-25T06:29:01.609Z,90.35
2018-12-25T06:30:01.637Z,91.08
2018-12-25T06:31:01.650Z,90.87
2018-12-25T06:32:01.607Z,90.62
2018-12-25T06:33:01.581Z,90.77
2018-12-25T06:34:01.548Z,90.56
2018-12-25T06:35:01.557Z,90.00
2018-12-25T06:36:01.636Z,89.73
2018-12-25T06:37:01.528Z,90.87
2018-12-25T06:38:01.516Z,90.00
2018-12-25T06:39:01.509Z,89.27
2018-12-25T06:40:01.488Z,89.69
2018-12-25T06:41:01.496Z,90.87
2018-12-25T06:42:01.501Z,89.58
2018-12-25T06:43:01.450Z,89.17
2018-12-25T06:44:01.443Z,89.20
2018-12-25T06:45:01.432Z,89.37
2018-12-25T06:46:01.438Z,89.27
2018-12-25T06:47:01.420Z,89.37
2018-12-25T06:48:01.439Z,88.85
2018-12-25T06:49:01.394Z,88.64
2018-12-25T06:50:01.381Z,88.96
2018-12-25T06:51:03.986Z,89.48
2018-12-25T06:52:01.357Z,88.64
2018-12-25T06:53:01.339Z,89.37
2018-12-25T06:54:01.379Z,89.17
2018-12-25T06:55:01.322Z,90.52
2018-12-25T06:56:01.353Z,89.79
2018-12-25T06:57:01.350Z,89.58
2018-12-25T06:58:01.318Z,89.89
2018-12-25T06:59:01.281Z,89.58
2018-12-25T07:00:01.344Z,89.48
2018-12-25T07:01:01.260Z,89.48
2018-12-25T07:02:01.253Z,88.64
2018-12-25T07:03:01.278Z,89.37
2018-12-25T07:04:01.217Z,89.79
2018-12-25T07:05:01.216Z,88.96
2018-12-25T07:06:01.251Z,88.92
2018-12-25T07:07:01.191Z,89.06
2018-12-25T07:08:01.173Z,89.33
2018-12-25T07:09:01.162Z,89.17
2018-12-25T07:10:01.155Z,89.48
2018-12-25T07:11:01.145Z,89.58
2018-12-25T07:12:01.181Z,88.75
2018-12-25T07:13:01.128Z,89.02
2018-12-25T07:14:01.106Z,89.37
2018-12-25T07:15:01.111Z,89.48
2018-12-25T07:16:01.094Z,89.17
2018-12-25T07:17:01.081Z,89.06
2018-12-25T07:18:01.108Z,89.06
2018-12-25T07:19:01.050Z,89.58
2018-12-25T07:20:01.046Z,89.79
2018-12-25T07:21:01.028Z,88.75
2018-12-25T07:22:01.018Z,89.06
2018-12-25T07:23:01.018Z,88.81
2018-12-25T07:24:01.041Z,88.96
2018-12-25T07:25:00.990Z,89.06
2018-12-25T07:26:01.403Z,89.27
2018-12-25T07:27:01.027Z,89.27
2018-12-25T07:28:01.044Z,89.17
2018-12-25T07:29:00.941Z,88.96
2018-12-25T07:30:00.985Z,88.12
2018-12-25T07:31:00.923Z,87.81
2018-12-25T07:32:00.932Z,88.12
2018-12-25T07:33:00.923Z,88.50
2018-12-25T07:34:00.886Z,87.98
2018-12-25T07:35:00.899Z,87.98
2018-12-25T07:36:00.903Z,88.85
2018-12-25T07:37:00.859Z,89.02
2018-12-25T07:38:00.850Z,89.23
2018-12-25T07:39:00.831Z,88.96
2018-12-25T07:40:00.851Z,88.50
2018-12-25T07:41:00.806Z,89.37
2018-12-25T07:42:00.898Z,88.81
2018-12-25T07:43:00.961Z,89.27
2018-12-25T07:44:00.775Z,88.85
2018-12-25T07:45:00.764Z,89.02
2018-12-25T07:46:00.765Z,88.92
2018-12-25T07:47:00.746Z,88.81
2018-12-25T07:48:00.781Z,88.92
2018-12-25T07:49:00.721Z,87.77
2018-12-25T07:50:00.721Z,87.46
2018-12-25T07:51:00.700Z,87.66
2018-12-25T07:52:00.719Z,89.23
2018-12-25T07:53:00.694Z,88.40
2018-12-25T07:54:00.701Z,88.60
2018-12-25T07:55:00.663Z,88.92
2018-12-25T07:56:00.645Z,89.12
2018-12-25T07:57:00.642Z,88.40
2018-12-25T07:58:00.640Z,87.98
2018-12-25T07:59:00.626Z,88.09
2018-12-25T08:00:00.650Z,88.19
2018-12-25T08:01:00.599Z,88.19
2018-12-25T08:02:00.578Z,88.19
2018-12-25T08:03:00.671Z,87.46
2018-12-25T08:04:00.592Z,88.40
2018-12-25T08:05:00.544Z,88.19
2018-12-25T08:06:00.566Z,87.77
2018-12-25T08:07:00.539Z,87.77
2018-12-25T08:08:00.509Z,87.77
2018-12-25T08:09:00.504Z,88.50
2018-12-25T08:10:00.492Z,87.98
2018-12-25T08:11:00.481Z,87.88
2018-12-25T08:12:01.986Z,87.56
2018-12-25T08:13:00.469Z,87.56
2018-12-25T08:14:00.495Z,87.77
2018-12-25T08:15:00.615Z,87.46
2018-12-25T08:16:00.436Z,87.66
2018-12-25T08:17:00.425Z,88.09
2018-12-25T08:18:00.440Z,88.92
2018-12-25T08:19:00.394Z,89.12
2018-12-25T08:20:00.380Z,88.09
2018-12-25T08:21:00.398Z,88.19
2018-12-25T08:22:00.359Z,88.19
2018-12-25T08:23:02.642Z,88.50
2018-12-25T08:24:00.377Z,89.17
2018-12-25T08:25:00.337Z,89.17
2018-12-25T08:26:00.317Z,89.23
2018-12-25T08:27:00.305Z,89.02
2018-12-25T08:28:00.322Z,89.06
2018-12-25T08:29:00.281Z,89.12
2018-12-25T08:30:00.302Z,89.06
2018-12-25T08:31:00.265Z,88.50
2018-12-25T08:32:00.249Z,88.96
2018-12-25T08:33:00.239Z,89.33
2018-12-25T08:34:00.225Z,89.33
2018-12-25T08:35:00.215Z,89.37
2018-12-25T08:36:00.256Z,88.54
2018-12-25T08:37:00.218Z,89.02
2018-12-25T08:38:00.193Z,88.40
2018-12-25T08:39:00.179Z,87.77
2018-12-25T08:40:00.276Z,87.77
2018-12-25T08:41:00.153Z,87.77
2018-12-25T08:42:00.200Z,88.29
2018-12-25T08:43:00.132Z,88.71
2018-12-25T08:44:00.118Z,89.12
2018-12-25T08:45:00.157Z,88.19
2018-12-25T08:46:00.101Z,87.63
2018-12-25T08:47:02.543Z,88.60
2018-12-25T08:48:00.103Z,89.08
2018-12-25T08:49:00.063Z,88.98
2018-12-25T08:50:00.086Z,87.63
2018-12-25T08:51:00.055Z,88.25
2018-12-25T08:52:00.027Z,87.63
2018-12-25T08:53:00.015Z,87.42
2018-12-25T08:54:00.043Z,87.94
2018-12-25T08:55:00.002Z,87.63
2018-12-25T08:55:59.993Z,88.35
2018-12-25T08:57:00.006Z,88.00
2018-12-25T08:57:59.980Z,87.63
2018-12-25T08:58:59.978Z,87.63
2018-12-25T09:00:00.015Z,87.90
2018-12-25T09:00:59.940Z,87.48
2018-12-25T09:01:59.920Z,87.27
2018-12-25T09:02:59.918Z,87.38
2018-12-25T09:03:59.914Z,87.79
2018-12-25T09:04:59.884Z,87.27
2018-12-25T09:05:59.932Z,87.27
2018-12-25T09:06:59.867Z,87.48
2018-12-25T09:07:59.863Z,87.59
2018-12-25T09:08:59.841Z,87.79
2018-12-25T09:09:59.847Z,87.48
2018-12-25T09:10:59.847Z,87.90
2018-12-25T09:11:59.840Z,88.00
2018-12-25T09:12:59.811Z,87.79
2018-12-25T09:13:59.789Z,87.03
2018-12-25T09:14:59.776Z,87.24
2018-12-25T09:15:59.780Z,87.45
2018-12-25T09:16:59.754Z,87.45
2018-12-25T09:17:59.775Z,87.45
2018-12-25T09:18:59.740Z,87.24
2018-12-25T09:19:59.743Z,87.34
2018-12-25T09:20:59.705Z,87.55
2018-12-25T09:21:59.699Z,87.45
2018-12-25T09:22:59.696Z,86.93
2018-12-25T09:23:59.709Z,87.45
2018-12-25T09:24:59.708Z,87.45
2018-12-25T09:25:59.650Z,87.76
2018-12-25T09:26:59.639Z,87.51
2018-12-25T09:27:59.628Z,87.65
2018-12-25T09:28:59.633Z,87.30
2018-12-25T09:29:59.646Z,87.34
2018-12-25T09:30:59.598Z,87.45
2018-12-25T09:31:59.587Z,87.30
2018-12-25T09:32:59.579Z,87.82
2018-12-25T09:33:59.587Z,87.30
2018-12-25T09:34:59.575Z,87.40
2018-12-25T09:35:59.573Z,86.99
2018-12-25T09:36:59.556Z,87.30
2018-12-25T09:37:59.520Z,86.26
2018-12-25T09:38:59.520Z,86.05
2018-12-25T09:39:59.525Z,86.22
2018-12-25T09:40:59.492Z,86.33
2018-12-25T09:41:59.531Z,87.05
2018-12-25T09:42:59.473Z,86.02
2018-12-25T09:43:59.454Z,86.29
2018-12-25T09:44:59.448Z,86.49
2018-12-25T09:45:59.459Z,85.25
2018-12-25T09:46:59.420Z,85.46
2018-12-25T09:47:59.457Z,85.25
2018-12-25T09:48:59.396Z,85.46
2018-12-25T09:49:59.389Z,85.73
2018-12-25T09:50:59.378Z,85.46
2018-12-25T09:51:59.371Z,85.31
2018-12-25T09:52:59.383Z,85.56
2018-12-25T09:53:59.453Z,85.25
2018-12-25T09:54:59.336Z,85.63
2018-12-25T09:55:59.388Z,85.52
2018-12-25T09:56:59.324Z,85.38
2018-12-25T09:57:59.314Z,84.80
2018-12-25T09:58:59.350Z,84.28
2018-12-25T09:59:59.342Z,83.97
2018-12-25T10:00:59.275Z,84.59
2018-12-25T10:01:59.261Z,84.03
2018-12-25T10:02:59.251Z,84.23
2018-12-25T10:03:59.258Z,84.44
2018-12-25T10:04:59.227Z,83.62
2018-12-25T10:05:59.250Z,83.62
2018-12-25T10:06:59.203Z,83.93
2018-12-25T10:07:59.208Z,82.95
2018-12-25T10:08:59.196Z,81.82
2018-12-25T10:09:59.172Z,82.03
2018-12-25T10:10:59.160Z,81.44
2018-12-25T10:11:59.197Z,80.99
2018-12-25T10:12:59.147Z,82.13
2018-12-25T10:13:59.139Z,81.51
2018-12-25T10:14:59.118Z,81.92
2018-12-25T10:15:59.112Z,81.40
2018-12-25T10:16:59.104Z,81.09
2018-12-25T10:17:59.615Z,82.09
2018-12-25T10:18:59.074Z,81.26
2018-12-25T10:19:59.069Z,81.26
2018-12-25T10:20:59.056Z,80.54
2018-12-25T10:22:02.912Z,82.09
2018-12-25T10:23:00.072Z,81.16
2018-12-25T10:23:59.024Z,80.43
2018-12-25T10:24:59.005Z,80.64
2018-12-25T10:25:59.002Z,80.74
2018-12-25T10:26:58.991Z,79.50
2018-12-25T10:27:58.977Z,80.12
2018-12-25T10:28:59.007Z,78.67
2018-12-25T10:29:58.968Z,79.71
2018-12-25T10:30:58.940Z,79.19
2018-12-25T10:31:58.931Z,78.78
2018-12-25T10:32:58.997Z,79.02
2018-12-25T10:33:58.934Z,80.22
2018-12-25T10:34:58.922Z,79.19
2018-12-25T10:35:58.899Z,79.91
2018-12-25T10:36:58.887Z,80.43
2018-12-25T10:37:58.870Z,80.54
2018-12-25T10:38:58.857Z,80.43
2018-12-25T10:39:58.854Z,79.60
2018-12-25T10:40:58.865Z,80.85
2018-12-25T10:41:58.830Z,79.81
2018-12-25T10:42:58.818Z,80.12
2018-12-25T10:43:58.807Z,79.60
2018-12-25T10:44:58.784Z,79.60
2018-12-25T10:45:58.789Z,79.09
2018-12-25T10:46:58.797Z,79.81
2018-12-25T10:47:58.857Z,79.19
2018-12-25T10:48:58.745Z,80.22
2018-12-25T10:49:58.728Z,79.47
2018-12-25T10:50:58.718Z,78.78
2018-12-25T10:51:58.729Z,79.47
2018-12-25T10:52:58.735Z,80.19
2018-12-25T10:53:58.684Z,80.08
2018-12-25T10:54:58.673Z,80.19
2018-12-25T10:55:58.676Z,79.98
2018-12-25T10:56:58.672Z,80.71
2018-12-25T10:57:58.658Z,80.64
2018-12-25T10:58:58.718Z,80.29
2018-12-25T10:59:58.628Z,79.71
2018-12-25T11:00:58.617Z,79.50
2018-12-25T11:01:58.716Z,79.57
2018-12-25T11:02:58.595Z,78.78
2018-12-25T11:03:58.584Z,78.85
2018-12-25T11:04:58.615Z,79.57
2018-12-25T11:05:58.586Z,78.74
2018-12-25T11:06:58.548Z,78.12
2018-12-25T11:07:58.541Z,78.22
2018-12-25T11:08:58.545Z,78.95
2018-12-25T11:09:58.523Z,78.85
2018-12-25T11:10:58.587Z,78.43
2018-12-25T11:11:58.506Z,78.22
2018-12-25T11:12:58.492Z,78.60
2018-12-25T11:13:58.475Z,78.22
2018-12-25T11:14:58.513Z,78.60
2018-12-25T11:15:58.457Z,77.77
2018-12-25T11:16:58.469Z,77.26
2018-12-25T11:17:58.467Z,76.84
2018-12-25T11:18:58.408Z,76.01
2018-12-25T11:19:58.407Z,76.09
2018-12-25T11:20:58.462Z,75.88
2018-12-25T11:21:58.380Z,76.91
2018-12-25T11:22:58.400Z,76.05
2018-12-25T11:23:58.369Z,74.81
2018-12-25T11:24:58.364Z,76.05
2018-12-25T11:25:58.336Z,75.84
2018-12-25T11:26:58.336Z,75.84
2018-12-25T11:27:58.320Z,74.81
2018-12-25T11:28:58.341Z,74.60
2018-12-25T11:29:58.290Z,75.15
2018-12-25T11:30:58.281Z,74.40
2018-12-25T11:31:58.277Z,74.43
2018-12-25T11:32:58.272Z,74.40
2018-12-25T11:33:58.247Z,73.98
2018-12-25T11:34:58.280Z,73.26
2018-12-25T11:35:58.263Z,74.08
2018-12-25T11:36:58.208Z,74.46
2018-12-25T11:37:58.202Z,74.77
2018-12-25T11:38:58.191Z,74.60
2018-12-25T11:39:58.177Z,75.70
2018-12-25T11:40:58.199Z,75.84
2018-12-25T11:41:58.159Z,75.91
2018-12-25T11:42:58.148Z,76.53
2018-12-25T11:43:58.138Z,76.64
2018-12-25T11:44:58.135Z,76.73
2018-12-25T11:45:58.119Z,74.88
2018-12-25T11:46:58.132Z,74.77
2018-12-25T11:47:58.113Z,74.57
2018-12-25T11:48:58.092Z,73.43
2018-12-25T11:49:58.066Z,73.12
2018-12-25T11:50:58.061Z,74.15
2018-12-25T11:51:58.048Z,74.22
2018-12-25T11:52:58.088Z,74.05
2018-12-25T11:53:58.040Z,72.19
2018-12-25T11:54:58.021Z,73.74
2018-12-25T11:55:58.001Z,73.12
2018-12-25T11:56:58.005Z,73.81
2018-12-25T11:57:57.981Z,73.22
2018-12-25T11:58:57.996Z,73.74
2018-12-25T11:59:57.966Z,73.12
2018-12-25T12:00:57.946Z,72.99
2018-12-25T12:01:57.981Z,73.22
2018-12-25T12:02:57.922Z,71.67
2018-12-25T12:03:57.909Z,72.09
2018-12-25T12:04:57.926Z,71.67
2018-12-25T12:05:57.888Z,72.91
2018-12-25T12:06:57.891Z,72.40
2018-12-25T12:07:57.872Z,71.37
2018-12-25T12:08:57.882Z,71.47
2018-12-25T12:09:57.846Z,71.37
2018-12-25T12:10:57.873Z,73.09
2018-12-25T12:11:57.822Z,71.54
2018-12-25T12:12:57.833Z,70.82
2018-12-25T12:13:57.800Z,71.95
2018-12-25T12:14:58.569Z,73.50
2018-12-25T12:15:57.776Z,72.99
2018-12-25T12:16:57.827Z,73.09
2018-12-25T12:17:57.759Z,72.16
2018-12-25T12:18:57.749Z,71.54
2018-12-25T12:19:57.737Z,71.75
2018-12-25T12:20:57.719Z,71.37
2018-12-25T12:21:57.709Z,71.67
2018-12-25T12:22:57.728Z,70.54
2018-12-25T12:23:57.698Z,70.75
2018-12-25T12:24:57.726Z,69.30
2018-12-25T12:25:57.663Z,69.48
2018-12-25T12:26:57.661Z,70.82
2018-12-25T12:27:57.646Z,71.23
2018-12-25T12:28:57.677Z,70.82
2018-12-25T12:29:57.626Z,71.23
2018-12-25T12:30:57.663Z,70.61
2018-12-25T12:31:57.612Z,71.02
2018-12-25T12:32:57.621Z,71.44
2018-12-25T12:33:57.601Z,70.92
2018-12-25T12:34:57.599Z,70.40
2018-12-25T12:35:57.559Z,69.78
2018-12-25T12:36:57.572Z,70.43
2018-12-25T12:37:57.545Z,69.61
2018-12-25T12:38:57.535Z,71.37
2018-12-25T12:39:57.514Z,70.85
2018-12-25T12:40:57.531Z,70.75
2018-12-25T12:41:57.504Z,71.67
2018-12-25T12:42:57.480Z,71.98
2018-12-25T12:43:57.476Z,69.92
2018-12-25T12:44:57.535Z,71.16
2018-12-25T12:45:57.447Z,69.40
2018-12-25T12:46:57.481Z,70.75
2018-12-25T12:47:57.435Z,70.85
2018-12-25T12:48:57.411Z,70.85
2018-12-25T12:49:57.406Z,71.50
2018-12-25T12:50:57.390Z,71.09
2018-12-25T12:51:57.424Z,71.71